TimeCST,TemperatureF,Dew PointF,Humidity,Sea Level PressureIn,VisibilityMPH,Wind Direction,Wind SpeedMPH,Gust SpeedMPH,PrecipitationIn,Events,Conditions,WindDirDegrees,DateUTC
12:56 AM,18.0,14.0,84,30.49,-9999.0,North,9.2,-,N/A,,Unknown,350,2013-03-06 06:56:00
1:56 AM,17.1,12.9,84,30.49,-9999.0,North,9.2,-,N/A,,Unknown,10,2013-03-06 07:56:00
2:56 AM,17.1,12.9,84,30.49,-9999.0,NW,6.9,-,N/A,,Unknown,310,2013-03-06 08:56:00
3:56 AM,17.1,12.9,84,30.48,-9999.0,NW,6.9,-,N/A,,Unknown,320,2013-03-06 09:56:00
4:56 AM,17.1,12.9,84,30.50,-9999.0,NW,6.9,-,N/A,,Unknown,320,2013-03-06 10:56:00
5:56 AM,16.0,12.9,88,30.51,-9999.0,NNW,5.8,-,N/A,,Unknown,340,2013-03-06 11:56:00
6:56 AM,16.0,12.0,84,30.51,-9999.0,North,4.6,-,N/A,,Unknown,360,2013-03-06 12:56:00
7:56 AM,16.0,12.0,84,30.52,-9999.0,North,3.5,-,N/A,,Unknown,350,2013-03-06 13:56:00
8:56 AM,18.0,12.9,81,30.52,-9999.0,Calm,Calm,-,N/A,,Unknown,0,2013-03-06 14:56:00
9:56 AM,19.9,12.9,74,30.51,-9999.0,NE,3.5,-,N/A,,Unknown,40,2013-03-06 15:56:00
10:56 AM,19.0,12.9,77,30.50,-9999.0,East,4.6,-,N/A,,Unknown,100,2013-03-06 16:56:00
11:56 AM,19.0,12.9,77,30.49,-9999.0,SE,5.8,-,N/A,,Unknown,130,2013-03-06 17:56:00
12:56 PM,19.9,14.0,78,30.47,-9999.0,SE,3.5,-,N/A,,Unknown,130,2013-03-06 18:56:00
1:56 PM,19.9,14.0,78,30.44,-9999.0,South,5.8,-,N/A,,Unknown,180,2013-03-06 19:56:00
2:56 PM,19.9,14.0,78,30.43,-9999.0,South,5.8,-,N/A,,Unknown,170,2013-03-06 20:56:00
3:56 PM,19.9,14.0,78,30.42,-9999.0,South,6.9,-,N/A,,Unknown,170,2013-03-06 21:56:00
4:56 PM,19.0,14.0,81,30.41,-9999.0,SE,9.2,-,N/A,,Unknown,140,2013-03-06 22:56:00
5:56 PM,19.0,14.0,81,30.39,-9999.0,SE,9.2,-,N/A,,Unknown,130,2013-03-06 23:56:00
6:56 PM,19.0,14.0,81,30.38,-9999.0,SE,10.4,-,N/A,,Unknown,140,2013-03-07 00:56:00
7:56 PM,18.0,14.0,84,30.38,-9999.0,SSE,12.7,-,N/A,,Unknown,150,2013-03-07 01:56:00
8:56 PM,17.1,14.0,88,30.39,-9999.0,South,15.0,-,N/A,,Unknown,170,2013-03-07 02:56:00
9:56 PM,17.1,14.0,88,30.38,-9999.0,South,15.0,-,N/A,,Unknown,170,2013-03-07 03:56:00
10:56 PM,17.1,14.0,88,30.38,-9999.0,SSE,11.5,-,N/A,,Unknown,160,2013-03-07 04:56:00
11:56 PM,17.1,14.0,88,30.37,-9999.0,South,16.1,-,N/A,,Unknown,170,2013-03-07 05:56:00